Terminal Aerodrome Forecast
Issued by NWS Sterling, VA

Home | Current Version | Previous Version | Text Only | Print | Product List | Glossary On
Versions: 1 2 3 4 5 6 7 8 9 10 11 12 13 14 15 16 17 18 19 20 21 22 23 24
000
FTUS41 KLWX 130857 AAB
TAFBWI
TAF AMD
KBWI 130857Z 1309/1412 29015G35KT P6SM SCT030 BKN045
      TEMPO 1309/1310 2SM -SHSN
     FM131000 30019G40KT P6SM SCT030 BKN045
     FM132000 30019G32KT P6SM BKN050
     FM132300 31019G32KT P6SM FEW050
     FM140600 30014G26KT P6SM FEW250
     FM141100 31011G18KT P6SM FEW250=

USA.gov is the U.S. government's official web portal to all federal, state and local government web resources and services.